Time;durP1;ratioP1;P1;durP2;ratioP2;P2;SDS_P1;SDS_P2;PMS_P1;PMS_P2;Temp;Humidity;BMP_temperature;BMP_pressure;BME280_temperature;BME280_humidity;BME280_pressure;Samples;Min_cycle;Max_cycle;Signal;HPM_P1;HPM_P2
2023/07/06 00:01:09;;;;;;;31.48;20.85;;;;;;;25.96;100.00;97629.88;5005740;28;20126;-65
2023/07/06 00:03:38;;;;;;;28.17;19.42;;;;;;;25.95;100.00;97630.97;5020826;28;20061;-65
2023/07/06 00:06:09;;;;;;;27.23;20.40;;;;;;;25.99;100.00;97631.13;5011237;28;20045;-65
2023/07/06 00:08:38;;;;;;;28.77;21.05;;;;;;;26.00;100.00;97630.03;5010034;28;20057;-65
2023/07/06 00:11:09;;;;;;;32.67;21.05;;;;;;;25.96;100.00;97629.88;5011936;28;20057;-65
2023/07/06 00:13:39;;;;;;;29.02;20.23;;;;;;;25.96;100.00;97624.44;5023571;28;20057;-65
2023/07/06 00:16:11;;;;;;;26.13;19.23;;;;;;;25.97;100.00;97620.63;5021747;28;20478;-65
2023/07/06 00:18:41;;;;;;;30.60;21.10;;;;;;;25.99;100.00;97620.28;5014228;28;20057;-65
2023/07/06 00:21:11;;;;;;;29.27;21.58;;;;;;;25.99;100.00;97621.09;5017267;28;20044;-65
2023/07/06 00:23:43;;;;;;;28.88;20.55;;;;;;;25.96;100.00;97620.94;5013403;28;20696;-65
2023/07/06 00:26:16;;;;;;;33.05;21.35;;;;;;;26.00;100.00;97613.75;5029346;28;20037;-65
2023/07/06 00:28:50;;;;;;;32.42;21.42;;;;;;;25.98;100.00;97616.00;5013181;28;20125;-65
2023/07/06 00:31:31;;;;;;;27.02;20.55;;;;;;;25.97;100.00;97620.63;5009401;28;20495;-65
2023/07/06 00:34:07;;;;;;;26.38;20.75;;;;;;;25.98;100.00;97630.34;5015838;28;20057;-66
2023/07/06 00:36:38;;;;;;;28.55;20.17;;;;;;;26.00;100.00;97638.97;5016516;28;20053;-65
2023/07/06 00:39:10;;;;;;;24.55;18.80;;;;;;;26.04;100.00;97628.28;5035286;28;20524;-65
2023/07/06 00:41:40;;;;;;;27.67;19.92;;;;;;;26.05;100.00;97629.88;5011449;28;20061;-66
2023/07/06 00:44:46;;;;;;;26.90;19.85;;;;;;;26.01;100.00;97627.00;5012961;28;20142;-66
2023/07/06 00:47:20;;;;;;;26.27;19.40;;;;;;;25.99;100.00;97623.81;5010228;28;20041;-66
2023/07/06 00:49:50;;;;;;;26.65;19.83;;;;;;;26.05;100.00;97616.31;5017266;28;20045;-64
2023/07/06 00:52:22;;;;;;;27.63;20.27;;;;;;;26.08;100.00;97611.03;5011476;28;20042;-65
2023/07/06 00:54:52;;;;;;;30.10;20.98;;;;;;;26.11;100.00;97615.81;5013282;28;20119;-66
2023/07/06 00:57:22;;;;;;;26.70;19.30;;;;;;;26.15;100.00;97607.84;5006898;28;21112;-66
2023/07/06 00:59:54;;;;;;;26.65;18.95;;;;;;;26.18;100.00;97607.22;5007806;28;20529;-66
2023/07/06 01:02:27;;;;;;;27.33;19.88;;;;;;;26.20;100.00;97608.50;5008970;28;20484;-66
2023/07/06 01:04:57;;;;;;;29.75;19.23;;;;;;;26.21;100.00;97603.88;5019505;28;20116;-66
2023/07/06 01:07:29;;;;;;;26.80;19.05;;;;;;;26.24;100.00;97608.69;5022628;28;20051;-66
2023/07/06 01:09:59;;;;;;;30.63;20.92;;;;;;;26.28;100.00;97598.78;5019476;28;20046;-66
2023/07/06 01:12:28;;;;;;;28.08;18.70;;;;;;;26.34;100.00;97589.31;5019589;28;20143;-66
2023/07/06 01:14:58;;;;;;;26.77;19.40;;;;;;;26.40;100.00;97589.97;5019480;28;20706;-66
2023/07/06 01:17:34;;;;;;;24.63;18.85;;;;;;;26.45;100.00;97595.22;5019674;28;20128;-66
2023/07/06 01:20:16;;;;;;;26.08;18.70;;;;;;;26.49;100.00;97604.31;5022162;28;20056;-66
2023/07/06 01:22:59;;;;;;;24.33;18.13;;;;;;;26.54;100.00;97596.81;5022447;28;20048;-66
2023/07/06 01:25:46;;;;;;;20.92;16.15;;;;;;;26.61;100.00;97599.81;5018283;28;20511;-67
2023/07/06 01:28:24;;;;;;;25.25;18.27;;;;;;;26.69;100.00;97603.63;5019777;28;20053;-67
2023/07/06 01:31:18;;;;;;;22.35;17.05;;;;;;;26.75;100.00;97603.16;5017411;28;20195;-66
2023/07/06 01:33:53;;;;;;;;;;;;;;;26.83;100.00;97601.50;5021067;28;20107;-67
2023/07/06 01:36:40;;;;;;;22.67;16.90;;;;;;;26.85;100.00;97604.75;5015661;28;19925;-66
2023/07/06 01:39:19;;;;;;;24.73;17.73;;;;;;;26.97;100.00;97612.22;5018489;28;20049;-66
2023/07/06 01:42:14;;;;;;;25.23;17.90;;;;;;;27.00;100.00;97611.56;5022145;28;20483;-66
2023/07/06 01:44:49;;;;;;;26.50;19.10;;;;;;;27.11;100.00;97604.66;5014905;28;20488;-67
2023/07/06 01:47:20;;;;;;;24.77;17.63;;;;;;;27.28;100.00;97615.44;5015102;28;20049;-66
2023/07/06 01:49:50;;;;;;;25.20;17.42;;;;;;;27.30;100.00;97620.56;4998538;28;20385;-66
2023/07/06 01:52:41;;;;;;;24.08;17.33;;;;;;;27.51;100.00;97618.72;5020785;28;20053;-66
2023/07/06 01:55:48;;;;;;;22.92;17.30;;;;;;;27.42;100.00;97620.66;5017356;28;20091;-66
2023/07/06 01:58:24;;;;;;;21.60;16.77;;;;;;;27.75;100.00;97615.38;5013987;28;20053;-66
2023/07/06 02:01:07;;;;;;;23.08;16.38;;;;;;;27.91;100.00;97617.19;5017732;28;20053;-66
2023/07/06 02:03:38;;;;;;;18.88;14.80;;;;;;;27.99;100.00;97619.03;5018901;28;20068;-66
2023/07/06 02:06:10;;;;;;;17.27;14.05;;;;;;;28.33;100.00;97622.63;5018202;28;20471;-66
2023/07/06 02:08:43;;;;;;;16.85;13.30;;;;;;;28.52;100.00;97615.56;5021947;28;20056;-64
2023/07/06 02:11:17;;;;;;;15.70;13.53;;;;;;;28.58;100.00;97627.84;5019185;28;20079;-65
2023/07/06 02:13:48;;;;;;;16.65;13.30;;;;;;;28.42;100.00;97621.41;5006783;28;20797;-65
2023/07/06 02:16:17;;;;;;;16.52;13.80;;;;;;;28.39;100.00;97630.25;5013273;28;20041;-65
2023/07/06 02:18:47;;;;;;;19.35;14.80;;;;;;;28.11;100.00;97626.50;5017746;28;20047;-65
2023/07/06 02:21:16;;;;;;;16.45;13.27;;;;;;;28.59;100.00;97625.88;5019149;28;20130;-65
2023/07/06 02:23:47;;;;;;;15.32;12.63;;;;;;;29.20;100.00;97636.97;5020843;28;20140;-64
2023/07/06 02:26:16;;;;;;;17.08;12.68;;;;;;;29.42;100.00;97642.81;5013443;28;20050;-66
2023/07/06 02:28:47;;;;;;;19.02;13.57;;;;;;;29.53;100.00;97642.34;5041217;28;20167;-65
2023/07/06 02:31:17;;;;;;;14.73;12.90;;;;;;;29.68;99.43;97655.31;5017216;28;20877;-65
2023/07/06 02:33:46;;;;;;;19.52;12.93;;;;;;;29.77;96.94;97645.88;5014164;28;20122;-65
2023/07/06 02:36:16;;;;;;;15.48;13.50;;;;;;;29.93;96.08;97643.25;4999860;28;20389;-66
2023/07/06 02:38:47;;;;;;;17.40;12.77;;;;;;;30.28;95.34;97636.09;5018784;28;20052;-65
2023/07/06 02:41:17;;;;;;;16.60;12.95;;;;;;;30.19;94.19;97638.16;5011314;28;20073;-66
2023/07/06 02:43:47;;;;;;;14.10;11.32;;;;;;;30.61;93.21;97649.56;4997286;28;20100;-66
2023/07/06 02:46:19;;;;;;;15.27;12.73;;;;;;;30.54;91.30;97667.66;4992573;28;20052;-64
2023/07/06 02:48:52;;;;;;;14.60;11.20;;;;;;;30.93;91.30;97666.81;5010060;28;20042;-67
2023/07/06 02:51:22;;;;;;;14.73;12.60;;;;;;;30.89;88.59;97659.66;4994559;28;20049;-65
2023/07/06 02:53:52;;;;;;;14.15;11.75;;;;;;;31.10;88.79;97652.84;4995388;28;20516;-66
2023/07/06 02:56:21;;;;;;;16.20;12.77;;;;;;;31.09;87.58;97664.13;4993480;28;20050;-66
2023/07/06 02:58:51;;;;;;;14.95;11.27;;;;;;;31.09;88.89;97678.59;4996650;28;20049;-66
2023/07/06 03:01:20;;;;;;;15.65;11.77;;;;;;;31.20;88.69;97682.38;4998882;28;20539;-66
2023/07/06 03:03:51;;;;;;;15.23;11.98;;;;;;;31.46;87.44;97676.41;4994243;28;20066;-67
2023/07/06 03:06:21;;;;;;;18.40;13.43;;;;;;;30.53;88.91;97680.56;4997026;28;20097;-67
2023/07/06 03:08:50;;;;;;;16.30;13.13;;;;;;;30.66;89.71;97690.31;4979048;28;20048;-67
2023/07/06 03:11:20;;;;;;;16.08;12.30;;;;;;;30.68;90.18;97698.16;4993278;28;20136;-67
2023/07/06 03:13:49;;;;;;;16.95;13.18;;;;;;;30.71;88.56;97697.47;4989484;28;20057;-66
2023/07/06 03:16:21;;;;;;;15.88;12.90;;;;;;;30.72;90.61;97694.38;5008712;28;20589;-67
2023/07/06 03:18:50;;;;;;;17.63;12.98;;;;;;;30.65;90.64;97701.59;5005700;28;20400;-66
2023/07/06 03:21:20;;;;;;;17.25;13.73;;;;;;;30.54;90.07;97698.53;5004241;28;20049;-67
2023/07/06 03:23:50;;;;;;;17.08;12.52;;;;;;;30.46;91.21;97702.22;4989423;28;20482;-67
2023/07/06 03:26:20;;;;;;;18.40;14.50;;;;;;;30.33;90.91;97709.63;5004359;28;20061;-66
2023/07/06 03:28:50;;;;;;;19.02;13.48;;;;;;;30.37;91.47;97708.91;5002389;28;20048;-67
2023/07/06 03:31:22;;;;;;;17.20;14.02;;;;;;;30.22;92.54;97710.47;5004595;28;20115;-67
2023/07/06 03:33:52;;;;;;;16.67;13.05;;;;;;;30.02;93.42;97714.91;5005380;28;20497;-66
2023/07/06 03:36:22;;;;;;;17.90;14.25;;;;;;;30.05;93.54;97716.19;4997459;28;20049;-66
2023/07/06 03:38:52;;;;;;;18.55;14.05;;;;;;;30.10;95.92;97721.38;5003414;28;20085;-67
2023/07/06 03:41:21;;;;;;;20.75;14.52;;;;;;;30.28;94.55;97725.44;5002184;28;20308;-66
2023/07/06 03:43:56;;;;;;;18.23;14.13;;;;;;;30.23;93.28;97726.47;5001182;28;20424;-67
2023/07/06 03:46:36;;;;;;;19.27;14.40;;;;;;;30.12;95.41;97727.31;5002901;28;20631;-66
2023/07/06 03:49:10;;;;;;;19.55;15.13;;;;;;;30.14;95.32;97742.19;5011890;28;20048;-67
2023/07/06 03:51:45;;;;;;;16.92;14.18;;;;;;;29.90;94.64;97731.31;5015729;28;20076;-67
2023/07/06 03:54:15;;;;;;;18.77;14.45;;;;;;;30.08;96.00;97743.59;5013220;28;20045;-67
2023/07/06 03:56:45;;;;;;;23.63;15.60;;;;;;;30.04;95.61;97737.22;5024402;28;20042;-66
2023/07/06 03:59:14;;;;;;;22.60;16.90;;;;;;;29.76;96.74;97739.00;5033570;28;20040;-66
2023/07/06 04:01:43;;;;;;;19.17;16.00;;;;;;;29.94;97.71;97731.41;5035756;28;20046;-67
2023/07/06 04:04:15;;;;;;;22.88;16.60;;;;;;;29.93;99.24;97727.09;5030947;28;20052;-66
2023/07/06 04:06:45;;;;;;;22.03;16.90;;;;;;;29.93;97.05;97740.75;5016925;28;20049;-67
2023/07/06 04:09:14;;;;;;;23.70;16.75;;;;;;;30.15;97.86;97748.47;5033600;28;20056;-67
2023/07/06 04:11:43;;;;;;;19.67;16.70;;;;;;;30.13;96.75;97753.50;5003706;28;20409;-67
2023/07/06 04:14:13;;;;;;;21.23;16.80;;;;;;;30.41;94.96;97759.81;5029399;28;20501;-67
2023/07/06 04:16:43;;;;;;;20.13;16.58;;;;;;;30.73;93.34;97756.13;5028586;28;20096;-67
2023/07/06 04:19:12;;;;;;;21.95;16.50;;;;;;;30.61;92.53;97758.09;5034279;28;20049;-67
2023/07/06 04:21:41;;;;;;;22.95;16.40;;;;;;;30.72;92.63;97761.91;5013405;28;20054;-67
2023/07/06 04:24:11;;;;;;;18.17;15.75;;;;;;;30.70;92.70;97770.50;5007739;28;20053;-69
2023/07/06 04:26:41;;;;;;;20.73;16.95;;;;;;;30.35;93.69;97777.59;5018337;28;20766;-68
2023/07/06 04:29:11;;;;;;;21.27;16.60;;;;;;;30.19;95.33;97779.41;5021837;28;20055;-67
2023/07/06 04:31:41;;;;;;;19.40;16.33;;;;;;;30.11;96.01;97783.88;5009008;28;20064;-68
2023/07/06 04:34:10;;;;;;;20.45;17.60;;;;;;;29.99;98.40;97785.81;5018231;28;20045;-68
2023/07/06 04:36:39;;;;;;;20.00;17.27;;;;;;;29.70;96.35;97784.84;5008471;28;20150;-68
2023/07/06 04:39:10;;;;;;;20.50;17.02;;;;;;;29.59;98.95;97789.16;5025513;28;20057;-67
2023/07/06 04:41:43;;;;;;;22.23;18.60;;;;;;;29.69;100.00;97790.66;5012777;28;20049;-68
2023/07/06 04:44:13;;;;;;;23.27;19.17;;;;;;;29.64;99.52;97790.88;5016488;28;20141;-68
2023/07/06 04:46:43;;;;;;;25.60;19.85;;;;;;;29.54;100.00;97796.75;5013759;28;20128;-67
2023/07/06 04:49:14;;;;;;;24.15;20.02;;;;;;;29.39;99.78;97804.44;5027217;28;20104;-67
2023/07/06 04:51:43;;;;;;;22.45;19.30;;;;;;;29.43;100.00;97807.31;5007408;28;20053;-67
2023/07/06 04:54:14;;;;;;;30.35;20.08;;;;;;;29.32;100.00;97803.41;5028443;28;20597;-67
2023/07/06 04:56:43;;;;;;;24.58;20.50;;;;;;;29.29;100.00;97814.97;5008881;28;20050;-68
2023/07/06 04:59:12;;;;;;;26.77;20.40;;;;;;;29.39;100.00;97818.09;5023088;28;20054;-68
2023/07/06 05:01:42;;;;;;;27.17;22.33;;;;;;;29.30;100.00;97832.94;5021292;28;20049;-67
2023/07/06 05:04:12;;;;;;;28.05;21.83;;;;;;;29.15;100.00;97833.56;5026461;28;20041;-67
2023/07/06 05:06:41;;;;;;;27.15;22.80;;;;;;;29.06;100.00;97822.72;5007504;28;20049;-68
2023/07/06 05:09:12;;;;;;;26.95;21.75;;;;;;;29.06;100.00;97830.09;4991777;28;20057;-68
2023/07/06 05:11:41;;;;;;;26.05;21.60;;;;;;;29.06;100.00;97828.19;5008961;28;20115;-68
2023/07/06 05:14:11;;;;;;;27.98;22.33;;;;;;;28.94;100.00;97842.53;5023760;28;20129;-67
2023/07/06 05:16:40;;;;;;;29.80;22.70;;;;;;;28.88;100.00;97849.34;5022614;28;20059;-69
2023/07/06 05:19:10;;;;;;;30.88;23.17;;;;;;;28.79;100.00;97850.53;4989496;28;20068;-67
2023/07/06 05:21:40;;;;;;;30.50;22.92;;;;;;;28.74;100.00;97854.25;5003675;28;20053;-68
2023/07/06 05:24:10;;;;;;;33.67;23.20;;;;;;;28.72;100.00;97866.63;5017300;28;20061;-67
2023/07/06 05:26:40;;;;;;;31.33;23.55;;;;;;;28.67;100.00;97869.50;5004596;28;20070;-68
2023/07/06 05:29:10;;;;;;;29.80;23.73;;;;;;;28.62;100.00;97878.66;5025023;28;20102;-67
2023/07/06 05:31:46;;;;;;;35.08;24.65;;;;;;;28.57;100.00;97876.13;5034390;28;20076;-67
2023/07/06 05:34:15;;;;;;;28.07;23.73;;;;;;;28.51;100.00;97882.88;5016532;28;20049;-67
2023/07/06 05:36:45;;;;;;;35.65;24.42;;;;;;;28.48;100.00;97897.97;5009090;28;20283;-67
2023/07/06 05:39:14;;;;;;;32.55;25.00;;;;;;;28.44;100.00;97907.13;5013234;28;20144;-67
2023/07/06 05:41:44;;;;;;;14.95;8.25;;;;;;;27.47;100.00;97906.06;5002978;28;20052;-66
2023/07/06 05:44:16;;;;;;;14.95;9.43;;;;;;;27.23;100.00;97904.66;5015861;28;20049;-67
2023/07/06 05:46:46;;;;;;;13.85;7.88;;;;;;;26.92;100.00;97914.03;5030131;28;20133;-66
2023/07/06 05:49:16;;;;;;;8.85;5.00;;;;;;;26.64;100.00;97918.94;5023978;28;20054;-66
2023/07/06 05:51:45;;;;;;;7.57;5.85;;;;;;;26.31;100.00;97922.03;5010427;28;20064;-66
2023/07/06 05:54:15;;;;;;;6.82;5.70;;;;;;;26.15;100.00;97915.38;5018868;28;20068;-66
2023/07/06 05:56:48;;;;;;;9.02;7.47;;;;;;;25.90;100.00;97919.56;4994544;28;20103;-65
2023/07/06 05:59:24;;;;;;;10.20;7.13;;;;;;;25.78;100.00;97924.75;5016041;28;20068;-66
2023/07/06 06:01:54;;;;;;;8.95;6.20;;;;;;;25.57;100.00;97920.94;5001283;28;20418;-64
2023/07/06 06:04:28;;;;;;;11.18;6.85;;;;;;;25.53;100.00;97928.06;5001802;28;20072;-64
2023/07/06 06:06:59;;;;;;;13.00;6.50;;;;;;;25.51;100.00;97941.13;5007690;28;20056;-65
2023/07/06 06:09:28;;;;;;;8.85;5.47;;;;;;;25.32;100.00;97940.47;5005051;28;20120;-65
2023/07/06 06:11:57;;;;;;;8.05;5.65;;;;;;;25.23;100.00;97950.44;5007630;28;20048;-63
2023/07/06 06:14:28;;;;;;;12.30;7.18;;;;;;;25.18;100.00;97948.66;5004704;28;20060;-64
2023/07/06 06:16:59;;;;;;;11.10;6.20;;;;;;;25.16;100.00;97963.63;5018576;28;20053;-63
2023/07/06 06:19:35;;;;;;;10.20;6.68;;;;;;;25.13;100.00;97978.59;5004181;28;20056;-65
2023/07/06 06:22:09;;;;;;;9.70;7.40;;;;;;;25.13;100.00;97970.47;5017300;28;20050;-63
2023/07/06 06:24:39;;;;;;;12.10;8.05;;;;;;;25.09;100.00;97968.69;5008969;28;20050;-64
2023/07/06 06:27:12;;;;;;;11.07;7.55;;;;;;;25.10;100.00;97976.47;4993381;28;20140;-64
2023/07/06 06:29:42;;;;;;;11.40;7.68;;;;;;;25.03;100.00;97997.78;5003237;28;20047;-64
2023/07/06 06:32:13;;;;;;;8.48;6.40;;;;;;;24.85;100.00;98007.59;4997219;28;20103;-64
2023/07/06 06:34:44;;;;;;;9.48;5.90;;;;;;;24.77;100.00;98021.84;5020358;28;20049;-63
2023/07/06 06:37:19;;;;;;;11.13;6.68;;;;;;;24.78;100.00;98037.00;5020346;28;20144;-64
2023/07/06 06:39:48;;;;;;;13.85;6.57;;;;;;;24.81;100.00;98022.84;5026661;28;20041;-65
2023/07/06 06:42:19;;;;;;;11.43;7.28;;;;;;;24.76;100.00;98014.03;5024162;28;20153;-65
2023/07/06 06:44:49;;;;;;;12.02;7.60;;;;;;;24.79;100.00;98000.66;5022126;28;20076;-64
2023/07/06 06:47:19;;;;;;;9.82;6.78;;;;;;;24.74;100.00;98010.81;5016118;28;20141;-65
2023/07/06 06:49:49;;;;;;;9.45;6.80;;;;;;;24.78;100.00;98019.97;4984206;28;20055;-65
2023/07/06 06:52:20;;;;;;;9.93;7.95;;;;;;;24.77;100.00;98016.44;5016358;28;20108;-65
2023/07/06 06:54:51;;;;;;;11.73;8.93;;;;;;;24.84;100.00;98019.53;5001608;28;20053;-65
2023/07/06 06:57:21;;;;;;;12.63;9.73;;;;;;;24.75;100.00;98024.03;4997307;28;20045;-65
2023/07/06 06:59:54;;;;;;;12.30;9.52;;;;;;;24.81;100.00;98013.94;4993559;28;20072;-66
2023/07/06 07:02:23;;;;;;;14.55;10.50;;;;;;;24.86;100.00;98003.03;5012715;28;20152;-64
2023/07/06 07:04:58;;;;;;;14.52;10.13;;;;;;;24.81;100.00;97981.41;5014051;28;20081;-65
2023/07/06 07:07:28;;;;;;;15.63;10.13;;;;;;;24.92;100.00;97959.25;5009586;28;20062;-65
2023/07/06 07:09:57;;;;;;;15.55;11.13;;;;;;;24.95;100.00;97938.91;5002385;28;20048;-65
2023/07/06 07:12:26;;;;;;;15.85;9.57;;;;;;;24.95;100.00;97920.75;5013907;28;20055;-66
2023/07/06 07:14:56;;;;;;;12.35;9.45;;;;;;;24.78;100.00;97909.72;4999105;28;20129;-65
2023/07/06 07:17:27;;;;;;;12.23;9.10;;;;;;;24.88;100.00;97903.28;4997089;28;20111;-65
2023/07/06 07:19:56;;;;;;;11.13;9.27;;;;;;;24.85;100.00;97885.69;5001699;28;20055;-65
2023/07/06 07:22:27;;;;;;;13.25;9.40;;;;;;;24.57;100.00;97865.19;5019584;28;20076;-64
2023/07/06 07:25:02;;;;;;;14.45;9.52;;;;;;;24.71;100.00;97844.31;5016593;28;20054;-63
2023/07/06 07:27:36;;;;;;;11.45;9.20;;;;;;;24.92;100.00;97848.19;5003956;28;20159;-64
2023/07/06 07:30:09;;;;;;;13.23;8.55;;;;;;;25.01;100.00;97829.28;5011689;28;20049;-63
2023/07/06 07:32:41;;;;;;;14.60;9.90;;;;;;;25.05;100.00;97814.81;5005985;28;20049;-63
2023/07/06 07:35:11;;;;;;;12.87;9.67;;;;;;;25.12;100.00;97808.16;5006367;28;20037;-64
2023/07/06 07:37:40;;;;;;;14.82;10.82;;;;;;;25.00;100.00;97811.44;5012082;28;20872;-63
2023/07/06 07:40:15;;;;;;;17.13;10.60;;;;;;;25.02;100.00;97799.19;5012367;28;20120;-63
2023/07/06 07:42:46;;;;;;;15.85;11.15;;;;;;;24.94;100.00;97780.97;5012696;28;20053;-64
2023/07/06 07:45:18;;;;;;;22.25;13.05;;;;;;;24.72;100.00;97770.06;5016455;28;20057;-64
2023/07/06 07:47:48;;;;;;;16.63;12.32;;;;;;;24.83;100.00;97760.59;5009692;28;20042;-64
2023/07/06 07:50:18;;;;;;;20.00;14.50;;;;;;;24.83;100.00;97728.09;4997934;28;20042;-66
2023/07/06 07:52:48;;;;;;;26.77;16.98;;;;;;;24.86;100.00;97708.56;5012598;28;20161;-64
2023/07/06 07:55:20;;;;;;;24.02;18.00;;;;;;;24.93;100.00;97689.94;5010377;28;20536;-64
2023/07/06 07:57:49;;;;;;;24.30;18.00;;;;;;;24.83;100.00;97686.66;4989358;28;20119;-64
2023/07/06 08:00:20;;;;;;;26.92;17.58;;;;;;;24.80;100.00;97671.03;5017485;28;20065;-65
2023/07/06 08:02:53;;;;;;;21.90;14.98;;;;;;;25.04;100.00;97658.78;5012957;28;20591;-65
2023/07/06 08:05:23;;;;;;;17.30;12.82;;;;;;;25.00;100.00;97660.50;5010666;28;20058;-64
2023/07/06 08:07:53;;;;;;;19.33;12.73;;;;;;;25.23;100.00;97668.56;4993492;28;20050;-65
2023/07/06 08:10:23;;;;;;;13.20;9.65;;;;;;;25.19;100.00;97665.69;5009241;28;20665;-64
2023/07/06 08:12:54;;;;;;;14.98;10.07;;;;;;;25.23;100.00;97649.59;5010253;28;20061;-65
2023/07/06 08:15:25;;;;;;;11.25;8.48;;;;;;;25.41;100.00;97640.41;4996298;28;20042;-64
2023/07/06 08:18:00;;;;;;;9.25;7.25;;;;;;;25.54;100.00;97620.53;5015192;28;20595;-65
2023/07/06 08:20:34;;;;;;;9.82;7.22;;;;;;;25.53;100.00;97618.94;5015057;28;20681;-65
2023/07/06 08:23:26;;;;;;;10.65;7.22;;;;;;;25.74;100.00;97603.69;4994804;28;20056;-65
2023/07/06 08:25:57;;;;;;;8.50;7.10;;;;;;;25.98;100.00;97597.78;5018225;28;20064;-66
2023/07/06 08:28:31;;;;;;;11.32;6.70;;;;;;;26.16;100.00;97593.16;5017220;28;20046;-67
2023/07/06 08:31:02;;;;;;;8.10;6.43;;;;;;;26.11;100.00;97577.06;5028854;28;20699;-67
2023/07/06 08:33:37;;;;;;;6.93;5.50;;;;;;;26.21;100.00;97571.31;5008727;28;20068;-67
2023/07/06 08:36:08;;;;;;;6.80;5.32;;;;;;;26.18;100.00;97563.78;5001998;28;20061;-67
2023/07/06 08:38:38;;;;;;;6.78;5.38;;;;;;;26.36;100.00;97560.75;5023427;28;20742;-67
2023/07/06 08:41:31;;;;;;;7.85;4.50;;;;;;;26.60;100.00;97556.72;5033932;28;20045;-68
2023/07/06 08:44:10;;;;;;;8.27;4.78;;;;;;;26.71;100.00;97560.66;5020118;28;20104;-67
2023/07/06 08:46:54;;;;;;;6.10;4.60;;;;;;;26.77;100.00;97557.44;5021316;28;20426;-68
2023/07/06 08:49:33;;;;;;;7.45;4.35;;;;;;;26.91;100.00;97559.19;5015640;28;20088;-69
2023/07/06 08:52:05;;;;;;;6.82;4.43;;;;;;;27.08;100.00;97561.81;5014025;28;20125;-66
2023/07/06 08:54:39;;;;;;;5.63;4.20;;;;;;;27.24;100.00;97551.97;5006664;28;20049;-67
2023/07/06 08:57:15;;;;;;;6.30;4.65;;;;;;;27.44;100.00;97556.63;5012779;28;20052;-67
2023/07/06 08:59:51;;;;;;;6.00;4.20;;;;;;;27.52;100.00;97557.75;5005762;28;20041;-65
2023/07/06 09:02:24;;;;;;;5.97;4.15;;;;;;;27.60;100.00;97551.44;5003750;28;20846;-66
2023/07/06 09:04:59;;;;;;;6.53;4.70;;;;;;;27.69;100.00;97558.44;5003217;28;20978;-67
2023/07/06 09:07:35;;;;;;;6.03;4.63;;;;;;;27.68;100.00;97564.19;5024903;28;20050;-66
2023/07/06 09:10:17;;;;;;;5.70;4.25;;;;;;;27.75;100.00;97561.72;5011897;28;20127;-66
2023/07/06 09:13:12;;;;;;;5.72;4.32;;;;;;;27.76;100.00;97559.81;5005373;28;20564;-67
2023/07/06 09:15:48;;;;;;;4.63;4.18;;;;;;;27.83;100.00;97568.25;5007993;28;20108;-67
2023/07/06 09:18:18;;;;;;;6.38;4.85;;;;;;;28.04;100.00;97579.91;5025263;28;20128;-67
2023/07/06 09:20:50;;;;;;;6.28;4.93;;;;;;;28.03;100.00;97581.03;5005498;28;20091;-68
2023/07/06 09:23:21;;;;;;;6.50;4.57;;;;;;;28.12;100.00;97574.44;5011305;28;20524;-67
2023/07/06 09:25:54;;;;;;;7.22;5.00;;;;;;;28.25;100.00;97574.47;5026422;28;20085;-67
2023/07/06 09:28:29;;;;;;;5.13;4.60;;;;;;;28.32;100.00;97567.38;5021376;28;20111;-67
2023/07/06 09:31:09;;;;;;;4.95;4.45;;;;;;;28.33;100.00;97584.50;5019481;28;20072;-69
2023/07/06 09:33:44;;;;;;;6.68;4.35;;;;;;;28.39;100.00;97585.88;5013995;28;20707;-68
2023/07/06 09:36:19;;;;;;;6.60;4.78;;;;;;;28.44;99.07;97586.47;5026817;28;20071;-72
2023/07/06 09:38:50;;;;;;;7.10;4.50;;;;;;;28.43;97.96;97587.59;5034763;28;20153;-67
2023/07/06 09:41:29;;;;;;;5.65;4.18;;;;;;;28.44;96.66;97583.75;5015525;28;20041;-68
2023/07/06 09:44:03;;;;;;;7.32;5.53;;;;;;;28.53;97.70;97579.00;5017915;28;20061;-68
2023/07/06 09:46:36;;;;;;;6.30;5.07;;;;;;;28.65;98.08;97591.84;5000410;28;20699;-68
2023/07/06 09:49:18;;;;;;;6.15;5.07;;;;;;;28.65;96.18;97589.13;4997087;28;20359;-68
2023/07/06 09:51:58;;;;;;;6.43;4.65;;;;;;;28.70;96.83;97582.66;5005878;28;20465;-68
2023/07/06 09:55:33;;;;;;;5.43;4.72;;;;;;;28.72;96.38;97594.06;5001880;28;20045;-67
2023/07/06 09:58:08;;;;;;;7.13;4.60;;;;;;;28.83;96.55;97593.28;4931588;29;20075;-68
2023/07/06 10:00:47;;;;;;;11.05;5.22;;;;;;;28.87;94.79;97605.09;5002830;28;20073;-67
2023/07/06 10:03:40;;;;;;;9.10;5.13;;;;;;;28.98;95.95;97610.94;5002625;28;20123;-65
2023/07/06 10:06:13;;;;;;;5.05;4.30;;;;;;;28.94;94.05;97610.03;5008476;28;20041;-66
2023/07/06 10:08:58;;;;;;;6.72;4.53;;;;;;;28.88;93.48;97612.16;4995984;28;20602;-67
2023/07/06 10:12:06;;;;;;;4.22;3.70;;;;;;;28.95;92.17;97606.13;4979951;28;20484;-67
2023/07/06 10:14:50;;;;;;;8.35;4.55;;;;;;;28.96;91.68;97605.00;5005131;28;20157;-66
2023/07/06 10:17:43;;;;;;;6.78;4.10;;;;;;;29.05;92.42;97604.91;4996554;28;20066;-67
2023/07/06 10:20:18;;;;;;;4.43;3.35;;;;;;;29.07;91.05;97608.09;4963576;28;20461;-67
2023/07/06 10:23:12;;;;;;;5.88;4.13;;;;;;;29.05;91.42;97599.44;4999750;28;20144;-68
2023/07/06 10:26:18;;;;;;;4.88;3.72;;;;;;;29.06;91.57;97607.31;5000487;28;20104;-66
2023/07/06 10:29:16;;;;;;;7.78;4.78;;;;;;;29.12;91.12;97589.56;4975071;28;20056;-66
2023/07/06 10:31:55;;;;;;;6.57;3.83;;;;;;;29.06;91.39;97582.75;4967122;28;20306;-67
2023/07/06 10:34:54;;;;;;;4.32;3.78;;;;;;;29.07;92.12;97578.09;4999005;28;20049;-66
2023/07/06 10:37:27;;;;;;;7.15;4.10;;;;;;;29.11;91.96;97579.00;4977509;28;20129;-69
2023/07/06 10:40:31;;;;;;;5.38;4.43;;;;;;;29.10;91.52;97577.41;4997747;28;20050;-67
2023/07/06 10:43:20;;;;;;;4.80;3.58;;;;;;;29.08;92.15;97585.94;4995300;28;20057;-64
2023/07/06 10:45:56;;;;;;;6.43;4.40;;;;;;;29.14;93.45;97581.84;5024911;28;20565;-68
2023/07/06 10:48:34;;;;;;;8.18;4.18;;;;;;;29.16;93.43;97576.88;5003900;28;20059;-69
2023/07/06 10:51:04;;;;;;;5.47;4.25;;;;;;;29.16;93.47;97587.78;5019938;28;20624;-67
2023/07/06 10:53:37;;;;;;;7.05;3.85;;;;;;;28.99;91.58;97582.50;5027070;28;20053;-69
2023/07/06 10:56:19;;;;;;;7.18;4.20;;;;;;;28.99;92.75;97580.59;5014723;28;20085;-69
2023/07/06 10:58:57;;;;;;;6.47;4.38;;;;;;;28.98;92.28;97575.50;5005875;28;20042;-70
2023/07/06 11:01:39;;;;;;;7.82;5.03;;;;;;;28.96;93.37;97567.63;5002474;28;20100;-69
2023/07/06 11:04:41;;;;;;;6.47;4.70;;;;;;;28.97;93.58;97574.69;5021331;28;20050;-69
2023/07/06 11:07:49;;;;;;;7.95;5.40;;;;;;;28.81;92.61;97568.28;4985718;28;20045;-69
2023/07/06 11:10:35;;;;;;;6.88;5.60;;;;;;;28.92;93.79;97563.19;5026702;28;20056;-69
2023/07/06 11:13:05;;;;;;;7.93;6.20;;;;;;;28.90;93.70;97560.03;5015563;28;20073;-69
2023/07/06 11:15:56;;;;;;;9.63;5.78;;;;;;;28.96;94.82;97556.72;5027025;28;20057;-68
2023/07/06 11:18:44;;;;;;;6.25;5.00;;;;;;;28.89;91.94;97551.06;5016807;28;20037;-70
2023/07/06 11:21:20;;;;;;;7.40;5.00;;;;;;;28.95;93.74;97538.78;5003087;28;20053;-69
2023/07/06 11:24:06;;;;;;;6.43;4.90;;;;;;;28.98;93.30;97529.94;4993764;28;20060;-71
2023/07/06 11:26:38;;;;;;;5.93;4.88;;;;;;;29.01;93.48;97529.25;5003503;28;20710;-70
2023/07/06 11:29:12;;;;;;;7.95;5.07;;;;;;;29.08;95.14;97523.22;5021986;28;20466;-72
2023/07/06 11:32:20;;;;;;;6.45;4.53;;;;;;;29.09;94.30;97524.00;5028057;28;20824;-69
2023/07/06 11:35:28;;;;;;;5.53;4.10;;;;;;;29.06;93.76;97514.59;5020975;28;20073;-69
2023/07/06 11:38:35;;;;;;;6.55;4.60;;;;;;;29.12;92.80;97510.47;4987777;28;20111;-69
2023/07/06 11:41:36;;;;;;;6.03;4.57;;;;;;;29.11;92.88;97511.63;4999318;28;20045;-69
2023/07/06 11:44:31;;;;;;;6.63;3.80;;;;;;;29.03;91.19;97509.81;4984324;28;20115;-69
2023/07/06 11:47:16;;;;;;;8.27;4.15;;;;;;;28.97;91.83;97524.81;4987047;28;20045;-70
2023/07/06 11:49:54;;;;;;;4.75;3.80;;;;;;;28.87;90.95;97520.59;4985233;28;20048;-69
2023/07/06 11:52:29;;;;;;;5.45;3.70;;;;;;;28.79;91.06;97509.81;4987272;28;20061;-69
2023/07/06 11:55:14;;;;;;;5.43;3.70;;;;;;;28.87;92.19;97498.00;5005666;28;20073;-68